createdAt,value
2022-08-02T00:06:27.721Z,22.79
2022-08-02T00:16:37.494Z,23.67
2022-08-02T00:26:40.452Z,25.52
2022-08-02T00:36:42.402Z,24.75
2022-08-02T00:46:44.848Z,22.55
2022-08-02T00:56:50.061Z,23.44
2022-08-02T01:06:53.245Z,25.24
2022-08-02T01:17:04.180Z,24.04
2022-08-02T01:27:41.882Z,23.83
2022-08-02T01:37:49.162Z,25.19
2022-08-02T01:47:54.100Z,23.94
2022-08-02T01:58:05.320Z,23.44
2022-08-02T02:08:09.921Z,24.85
2022-08-02T02:18:18.544Z,23.56
2022-08-02T02:28:24.566Z,22.81
2022-08-02T02:38:31.082Z,24.21
2022-08-02T02:48:35.601Z,25.10
2022-08-02T02:58:38.645Z,24.09
2022-08-02T03:08:40.678Z,22.08
2022-08-02T03:18:44.396Z,22.80
2022-08-02T03:28:46.323Z,24.84
2022-08-02T03:38:50.272Z,24.18
2022-08-02T03:48:53.332Z,24.02
2022-08-02T03:59:13.666Z,25.87
2022-08-02T04:09:15.556Z,24.96
2022-08-02T04:19:26.675Z,22.69
2022-08-02T04:29:30.548Z,23.76
2022-08-02T04:39:32.529Z,26.00
2022-08-02T04:49:34.729Z,25.37
2022-08-02T04:59:36.585Z,23.41
2022-08-02T05:09:38.521Z,22.71
2022-08-02T05:19:41.460Z,24.84
2022-08-02T05:29:51.174Z,26.34
2022-08-02T05:39:56.497Z,26.80
2022-08-02T05:49:58.961Z,31.26
2022-08-02T06:00:11.355Z,35.84
2022-08-02T06:10:20.734Z,39.53
2022-08-02T06:20:24.287Z,43.19
2022-08-02T06:30:26.886Z,45.95
2022-08-02T06:40:48.426Z,47.16
2022-08-02T06:50:50.591Z,45.83
2022-08-02T07:00:53.874Z,45.60
2022-08-02T07:10:58.428Z,45.56
2022-08-02T07:21:00.408Z,47.38
2022-08-02T07:31:02.493Z,49.12
2022-08-02T07:41:04.791Z,48.26
2022-08-02T07:51:06.986Z,50.59
2022-08-02T08:01:10.264Z,54.56
2022-08-02T08:11:12.332Z,57.24
2022-08-02T08:21:14.459Z,59.26
2022-08-02T08:31:16.435Z,61.17
2022-08-02T08:41:19.522Z,62.21
2022-08-02T08:51:24.770Z,62.75
2022-08-02T09:01:27.325Z,63.37
2022-08-02T09:11:49.690Z,64.12
2022-08-02T09:22:00.957Z,65.30
2022-08-02T09:44:12.831Z,68.16
2022-08-02T09:54:24.606Z,67.47
2022-08-02T10:16:18.961Z,65.46
2022-08-02T10:37:21.661Z,60.08
2022-08-02T10:47:54.583Z,55.77
2022-08-02T10:59:06.168Z,47.22
2022-08-02T11:09:32.781Z,41.23
2022-08-02T11:19:55.842Z,37.81
2022-08-02T11:30:39.145Z,36.02
2022-08-02T11:41:17.248Z,35.84
2022-08-02T11:51:54.248Z,34.96
2022-08-02T12:13:21.225Z,33.91
2022-08-02T12:24:01.792Z,33.29
2022-08-02T12:34:15.334Z,33.00
2022-08-02T12:44:19.766Z,33.01
2022-08-02T12:54:31.002Z,32.43
2022-08-02T13:04:34.836Z,31.48
2022-08-02T13:14:41.707Z,30.91
2022-08-02T13:25:07.632Z,31.20
2022-08-02T13:35:34.898Z,31.14
2022-08-02T13:45:37.069Z,30.88
2022-08-02T13:55:43.388Z,30.55
2022-08-02T14:05:49.042Z,30.29
2022-08-02T14:15:51.430Z,29.98
2022-08-02T14:25:53.430Z,29.82
2022-08-02T14:35:57.039Z,29.94
2022-08-02T14:45:59.329Z,30.02
2022-08-02T14:56:01.355Z,30.05
2022-08-02T15:06:03.337Z,29.79
2022-08-02T15:16:05.757Z,29.56
2022-08-02T15:26:07.705Z,29.41
2022-08-02T15:36:10.178Z,28.96
2022-08-02T15:46:12.399Z,28.31
2022-08-02T15:56:14.495Z,27.72
2022-08-02T16:06:18.418Z,27.64
2022-08-02T16:16:22.530Z,28.15
2022-08-02T16:26:26.557Z,28.05
2022-08-02T16:36:28.835Z,27.42
2022-08-02T16:46:31.196Z,26.73
2022-08-02T16:56:34.055Z,26.19
2022-08-02T17:06:47.591Z,25.79
2022-08-02T17:16:54.197Z,25.54
2022-08-02T17:26:56.099Z,25.38
2022-08-02T17:36:58.026Z,25.34
2022-08-02T17:47:00.012Z,25.23
2022-08-02T17:57:04.432Z,26.91
2022-08-02T18:07:09.910Z,27.61
2022-08-02T18:17:14.428Z,25.72
2022-08-02T18:27:16.492Z,24.50
2022-08-02T18:37:18.614Z,25.69
2022-08-02T18:47:20.750Z,27.83
2022-08-02T18:58:02.487Z,27.24
2022-08-02T19:07:50.802Z,25.07
2022-08-02T19:17:57.318Z,25.65
2022-08-02T19:27:59.385Z,27.03
2022-08-02T19:38:09.783Z,25.98
2022-08-02T19:48:15.841Z,23.80
2022-08-02T19:58:17.798Z,24.36
2022-08-02T20:08:31.773Z,25.97
2022-08-02T20:18:38.003Z,24.92
2022-08-02T20:28:41.571Z,22.75
2022-08-02T20:38:43.749Z,23.21
2022-08-02T20:48:45.824Z,24.50
2022-08-02T20:58:47.869Z,24.87
2022-08-02T21:08:54.688Z,25.14
2022-08-02T21:19:00.018Z,23.88
2022-08-02T21:29:03.664Z,21.91
2022-08-02T21:39:08.863Z,22.22
2022-08-02T21:49:11.491Z,23.49
2022-08-02T21:59:16.123Z,23.96
2022-08-02T22:09:44.521Z,24.19
2022-08-02T22:19:53.804Z,22.99
2022-08-02T22:29:56.592Z,22.39
2022-08-02T22:40:08.348Z,23.47
2022-08-02T22:50:12.179Z,23.79
2022-08-02T23:00:14.846Z,23.90
2022-08-02T23:10:16.778Z,22.74
2022-08-02T23:20:18.752Z,22.09
2022-08-02T23:30:21.043Z,23.32
2022-08-02T23:40:38.818Z,23.59
2022-08-02T23:50:42.031Z,22.38
